Rechercher aéroport 
image banner adimage banner ad
image banner ad

LRCRAS - Crasna

Situé à Crasna, Romania

ICAO - , IATA -

Données fournies par Airmate  

Information générale

Coordonnées: N47°10'5" E22°51'15"
Élévation : 910 feet MSL.
Variation magnétique : 5.1° East
Voir autres Aéroports à Satu Mare

Données opérationnelles

Accessible au public
Heure actuelle UTC:
Heure actuelle locale:
Météo à : LRSM - Satu Mare ( 60 km )
METAR: LRSM 231130Z 13009KT CAVOK 10/03 Q1003 R01/15//95
TAF: TAF LRSM 230800Z 2309/2318 14010KT 9999 SCT045 PROB30 TEMPO 2309/2312 5000 -RA BR BKN015 OVC040
Voir NOTAMs / SUP AIP / TFR affectant cet aéroport [VIEW]
Fréquences de communication: [VIEW]

Pistes:

Identifiant RWYQFULongueur (ft)Largeur (ft)SurfaceLDA (ft)
28285°108398GRASS
10105°108398GRASS

Coordonnées de l'aéroport

Adresse: Crasna Romania

Vue satellite de LRCRAS